createdAt,value
2022-09-21T00:01:32.722Z,8.70
2022-09-21T00:04:02.162Z,8.60
2022-09-21T00:06:34.276Z,8.60
2022-09-21T00:09:03.866Z,8.70
2022-09-21T00:11:33.342Z,8.50
2022-09-21T00:14:04.406Z,8.50
2022-09-21T00:16:32.786Z,8.50
2022-09-21T00:19:01.683Z,8.30
2022-09-21T00:21:31.386Z,8.30
2022-09-21T00:24:00.549Z,8.30
2022-09-21T00:26:29.567Z,8.30
2022-09-21T00:28:59.529Z,8.20
2022-09-21T00:31:28.461Z,8.20
2022-09-21T00:33:56.759Z,8.10
2022-09-21T00:36:26.336Z,8.20
2022-09-21T00:38:57.643Z,8.20
2022-09-21T00:41:27.317Z,8.20
2022-09-21T00:44:29.773Z,8.20
2022-09-21T00:47:02.360Z,8.30
2022-09-21T00:49:30.693Z,8.30
2022-09-21T00:52:00.255Z,8.20
2022-09-21T00:54:31.279Z,8.20
2022-09-21T00:57:01.655Z,8.30
2022-09-21T00:59:31.196Z,8.40
2022-09-21T01:02:00.488Z,8.30
2022-09-21T01:04:29.246Z,8.30
2022-09-21T01:06:58.033Z,8.40
2022-09-21T01:09:26.721Z,8.30
2022-09-21T01:12:06.415Z,8.30
2022-09-21T01:14:54.458Z,8.30
2022-09-21T01:17:31.535Z,8.20
2022-09-21T01:20:22.510Z,8.20
2022-09-21T01:23:06.157Z,8.20
2022-09-21T01:25:43.149Z,8.20
2022-09-21T01:28:24.980Z,8.20
2022-09-21T01:30:58.259Z,8.20
2022-09-21T01:33:30.176Z,8.20
2022-09-21T01:36:02.526Z,8.10
2022-09-21T01:38:36.525Z,8.10
2022-09-21T01:41:06.780Z,8.10
2022-09-21T01:43:38.595Z,8.10
2022-09-21T01:46:13.255Z,8.00
2022-09-21T01:48:45.849Z,8.00
2022-09-21T01:51:16.265Z,8.00
2022-09-21T01:53:50.170Z,7.90
2022-09-21T01:56:22.870Z,7.80
2022-09-21T01:58:59.266Z,7.80
2022-09-21T02:01:31.969Z,7.80
2022-09-21T02:04:02.999Z,7.80
2022-09-21T02:06:31.635Z,7.70
2022-09-21T02:08:59.600Z,7.70
2022-09-21T02:11:27.897Z,7.60
2022-09-21T02:13:56.731Z,7.50
2022-09-21T02:16:40.235Z,7.50
2022-09-21T02:19:15.143Z,7.40
2022-09-21T02:21:54.742Z,7.50
2022-09-21T02:24:30.207Z,7.60
2022-09-21T02:27:05.258Z,7.60
2022-09-21T02:29:42.466Z,7.50
2022-09-21T02:32:19.070Z,7.60
2022-09-21T02:34:51.297Z,7.60
2022-09-21T02:37:24.647Z,7.70
2022-09-21T02:39:59.119Z,7.70
2022-09-21T02:42:30.689Z,7.70
2022-09-21T02:45:05.726Z,7.50
2022-09-21T02:47:40.322Z,7.40
2022-09-21T02:50:14.381Z,7.30
2022-09-21T02:52:44.569Z,7.30
2022-09-21T02:55:14.746Z,7.10
2022-09-21T02:57:43.547Z,7.20
2022-09-21T03:00:12.919Z,7.10
2022-09-21T03:02:44.663Z,7.10
2022-09-21T03:05:14.255Z,7.00
2022-09-21T03:07:42.549Z,7.20
2022-09-21T03:10:13.528Z,7.20
2022-09-21T03:12:44.718Z,7.20
2022-09-21T03:15:12.656Z,7.20
2022-09-21T03:17:41.834Z,7.10
2022-09-21T03:20:10.523Z,7.00
2022-09-21T03:22:38.323Z,7.10
2022-09-21T03:25:07.483Z,7.10
2022-09-21T03:27:36.016Z,7.00
2022-09-21T03:30:04.140Z,6.90
2022-09-21T03:32:31.975Z,6.80
2022-09-21T03:35:01.182Z,6.90
2022-09-21T03:37:31.027Z,7.00
2022-09-21T03:40:00.200Z,7.00
2022-09-21T03:42:28.150Z,7.00
2022-09-21T03:44:55.999Z,7.00
2022-09-21T03:47:23.824Z,6.80
2022-09-21T03:49:51.714Z,6.80
2022-09-21T03:52:21.103Z,6.80
2022-09-21T03:54:48.920Z,6.70
2022-09-21T03:57:16.845Z,6.60
2022-09-21T03:59:45.003Z,6.60
2022-09-21T04:02:13.163Z,6.70
2022-09-21T04:04:40.964Z,6.60
2022-09-21T04:07:09.082Z,6.60
2022-09-21T04:09:38.362Z,6.60
2022-09-21T04:12:06.473Z,6.60
2022-09-21T04:14:34.809Z,6.50
2022-09-21T04:17:02.688Z,6.50
2022-09-21T04:19:30.554Z,6.50
2022-09-21T04:21:58.539Z,6.50
2022-09-21T04:24:27.192Z,6.50
2022-09-21T04:26:56.460Z,6.50
2022-09-21T04:29:24.303Z,6.50
2022-09-21T04:31:52.136Z,6.60
2022-09-21T04:34:21.116Z,6.60
2022-09-21T04:36:48.967Z,6.60
2022-09-21T04:39:16.859Z,6.40
2022-09-21T04:41:45.380Z,6.30
2022-09-21T04:44:14.575Z,6.30
2022-09-21T04:46:42.808Z,6.40
2022-09-21T04:49:10.777Z,6.40
2022-09-21T04:51:39.015Z,6.40
2022-09-21T04:54:07.052Z,6.30
2022-09-21T04:56:35.811Z,6.20
2022-09-21T04:59:04.366Z,6.10
2022-09-21T05:01:33.694Z,6.20
2022-09-21T05:04:02.915Z,6.30
2022-09-21T05:06:30.803Z,6.30
2022-09-21T05:09:13.149Z,6.20
2022-09-21T05:11:41.580Z,6.10
2022-09-21T05:14:10.027Z,6.00
2022-09-21T05:16:39.212Z,6.00
2022-09-21T05:19:07.563Z,6.00
2022-09-21T05:21:36.388Z,5.90
2022-09-21T05:24:04.718Z,6.00
2022-09-21T05:26:32.552Z,6.10
2022-09-21T05:29:00.907Z,6.20
2022-09-21T05:31:44.253Z,6.20
2022-09-21T05:34:36.872Z,6.20
2022-09-21T05:37:11.133Z,6.20
2022-09-21T05:39:39.590Z,6.20
2022-09-21T05:42:08.484Z,6.20
2022-09-21T05:44:37.087Z,6.20
2022-09-21T05:47:23.043Z,6.30
2022-09-21T05:50:00.590Z,6.30
2022-09-21T05:52:35.825Z,6.40
2022-09-21T05:55:19.981Z,6.50
2022-09-21T05:57:54.093Z,6.60
2022-09-21T06:00:23.394Z,6.60
2022-09-21T06:03:22.202Z,6.60
2022-09-21T06:05:50.067Z,6.80
2022-09-21T06:08:17.928Z,6.80
2022-09-21T06:10:45.809Z,6.90
2022-09-21T06:13:13.676Z,7.00
2022-09-21T06:15:42.134Z,7.00
2022-09-21T06:18:17.520Z,7.10
2022-09-21T06:20:45.835Z,7.10
2022-09-21T06:23:15.529Z,7.20
2022-09-21T06:25:43.604Z,7.20
2022-09-21T06:28:13.321Z,7.30
2022-09-21T06:30:42.319Z,7.40
2022-09-21T06:33:12.014Z,7.50
2022-09-21T06:35:40.397Z,7.60
2022-09-21T06:38:09.448Z,7.70
2022-09-21T06:40:38.289Z,7.80
2022-09-21T06:43:06.396Z,7.90
2022-09-21T06:45:34.488Z,8.00
2022-09-21T06:48:03.123Z,8.10
2022-09-21T06:50:33.069Z,8.10
2022-09-21T06:53:01.127Z,8.20
2022-09-21T06:55:29.421Z,8.30
2022-09-21T06:58:02.249Z,8.30
2022-09-21T07:00:30.510Z,8.40
2022-09-21T07:02:58.893Z,8.40
2022-09-21T07:05:27.555Z,8.50
2022-09-21T07:08:00.456Z,8.60
2022-09-21T07:10:28.624Z,8.70
2022-09-21T07:12:56.706Z,8.80
2022-09-21T07:15:29.059Z,8.90
2022-09-21T07:18:05.490Z,9.00
2022-09-21T07:20:33.848Z,9.00
2022-09-21T07:23:10.992Z,9.00
2022-09-21T07:25:39.399Z,9.10
2022-09-21T07:28:07.363Z,9.20
2022-09-21T07:30:36.962Z,9.30
2022-09-21T07:33:05.363Z,9.40
2022-09-21T07:35:33.989Z,9.40
2022-09-21T07:38:04.895Z,9.50
2022-09-21T07:40:33.077Z,9.60
2022-09-21T07:43:02.209Z,9.60
2022-09-21T07:45:31.988Z,9.70
2022-09-21T07:48:04.100Z,9.80
2022-09-21T07:50:33.615Z,9.90
2022-09-21T07:53:03.060Z,9.90
2022-09-21T07:55:31.689Z,10.00
2022-09-21T07:58:17.001Z,10.00
2022-09-21T08:00:44.963Z,10.10
2022-09-21T08:03:13.016Z,10.30
2022-09-21T08:05:41.425Z,10.30
2022-09-21T08:08:11.031Z,10.30
2022-09-21T08:10:39.606Z,10.20
2022-09-21T08:13:07.678Z,10.10
2022-09-21T08:15:51.124Z,10.10
2022-09-21T08:18:19.154Z,10.20
2022-09-21T08:20:56.075Z,10.30
2022-09-21T08:23:29.093Z,10.40
2022-09-21T08:26:00.369Z,10.50
2022-09-21T08:28:28.559Z,10.60
2022-09-21T08:31:00.839Z,10.70
2022-09-21T08:33:29.956Z,10.80
2022-09-21T08:35:59.883Z,11.00
2022-09-21T08:38:33.206Z,11.00
2022-09-21T08:41:16.717Z,11.20
2022-09-21T08:43:46.527Z,11.50
2022-09-21T08:46:17.961Z,11.50
2022-09-21T08:48:50.310Z,11.60
2022-09-21T08:51:23.363Z,11.60
2022-09-21T08:53:55.764Z,11.80
2022-09-21T08:56:37.056Z,11.90
2022-09-21T08:59:15.701Z,12.10
2022-09-21T09:01:58.665Z,12.30
2022-09-21T09:04:37.659Z,12.40
2022-09-21T09:07:25.049Z,12.30
2022-09-21T09:10:13.200Z,12.20
2022-09-21T09:12:55.531Z,12.30
2022-09-21T09:15:53.604Z,12.50
2022-09-21T09:18:26.212Z,12.50
2022-09-21T09:20:58.688Z,12.70
2022-09-21T09:23:30.098Z,12.90
2022-09-21T09:26:03.116Z,12.90
2022-09-21T09:28:37.094Z,12.80
2022-09-21T09:31:13.383Z,12.70
2022-09-21T09:33:53.057Z,12.60
2022-09-21T09:36:40.292Z,12.70
2022-09-21T09:39:14.165Z,13.10
2022-09-21T09:42:14.566Z,13.10
2022-09-21T09:45:08.552Z,13.10
2022-09-21T09:47:49.496Z,13.00
2022-09-21T09:50:22.955Z,13.30
2022-09-21T09:52:54.297Z,13.20
2022-09-21T09:55:25.869Z,13.20
2022-09-21T09:57:57.036Z,13.20
2022-09-21T10:00:26.440Z,13.50
2022-09-21T10:02:56.121Z,13.40
2022-09-21T10:05:26.690Z,13.40
2022-09-21T10:07:54.812Z,13.50
2022-09-21T10:10:35.659Z,14.00
2022-09-21T10:13:14.472Z,13.90
2022-09-21T10:15:49.860Z,14.20
2022-09-21T10:18:23.833Z,14.40
2022-09-21T10:21:10.805Z,14.00
2022-09-21T10:23:40.406Z,13.90
2022-09-21T10:26:11.630Z,13.80
2022-09-21T10:28:56.448Z,13.80
2022-09-21T10:31:27.217Z,13.70
2022-09-21T10:34:07.072Z,13.80
2022-09-21T10:36:36.769Z,14.10
2022-09-21T10:39:22.531Z,14.60
2022-09-21T10:41:59.453Z,14.50
2022-09-21T10:44:34.186Z,14.40
2022-09-21T10:47:22.344Z,14.40
2022-09-21T10:49:53.008Z,14.50
2022-09-21T10:52:23.699Z,14.60
2022-09-21T10:54:56.055Z,14.40
2022-09-21T10:57:26.656Z,14.60
2022-09-21T10:59:54.893Z,14.50
2022-09-21T11:02:35.044Z,14.30
2022-09-21T11:05:10.268Z,14.50
2022-09-21T11:07:43.131Z,14.50
2022-09-21T11:10:19.858Z,14.90
2022-09-21T11:12:59.960Z,15.30
2022-09-21T11:15:46.863Z,15.30
2022-09-21T11:18:22.573Z,15.10
2022-09-21T11:20:54.258Z,15.00
2022-09-21T11:23:37.310Z,15.20
2022-09-21T11:26:12.212Z,15.10
2022-09-21T11:28:46.971Z,15.30
2022-09-21T11:31:38.076Z,15.60
2022-09-21T11:34:31.727Z,15.60
2022-09-21T11:37:11.145Z,15.90
2022-09-21T11:39:55.287Z,16.10
2022-09-21T11:42:41.419Z,16.30
2022-09-21T11:45:22.031Z,16.40
2022-09-21T11:48:07.573Z,16.50
2022-09-21T11:50:48.923Z,16.20
2022-09-21T11:53:31.145Z,16.50
2022-09-21T11:56:10.389Z,16.40
2022-09-21T11:58:45.159Z,16.70
2022-09-21T12:01:34.779Z,16.80
2022-09-21T12:04:22.941Z,16.50
2022-09-21T12:07:05.125Z,16.50
2022-09-21T12:09:53.238Z,16.50
2022-09-21T12:12:25.251Z,16.80
2022-09-21T12:15:00.258Z,17.10
2022-09-21T12:17:43.638Z,17.10
2022-09-21T12:20:20.102Z,17.20
2022-09-21T12:22:53.268Z,17.10
2022-09-21T12:25:24.911Z,17.20
2022-09-21T12:28:00.640Z,17.30
2022-09-21T12:30:31.813Z,17.50
2022-09-21T12:33:05.684Z,17.80
2022-09-21T12:35:39.444Z,17.40
2022-09-21T12:38:16.477Z,17.10
2022-09-21T12:40:51.687Z,17.30
2022-09-21T12:43:33.596Z,17.40
2022-09-21T12:46:05.439Z,17.50
2022-09-21T12:48:35.069Z,18.00
2022-09-21T12:51:08.371Z,17.90
2022-09-21T12:53:40.071Z,17.80
2022-09-21T12:56:12.999Z,17.90
2022-09-21T12:59:05.866Z,18.20
2022-09-21T13:01:44.062Z,17.80
2022-09-21T13:04:38.438Z,17.80
2022-09-21T13:07:30.132Z,17.90
2022-09-21T13:10:00.728Z,17.90
2022-09-21T13:12:34.456Z,18.20
2022-09-21T13:15:06.194Z,18.10
2022-09-21T13:17:35.777Z,18.00
2022-09-21T13:20:06.578Z,18.30
2022-09-21T13:22:36.669Z,18.10
2022-09-21T13:25:19.310Z,18.50
2022-09-21T13:28:03.872Z,18.40
2022-09-21T13:30:38.486Z,18.10
2022-09-21T13:33:31.408Z,18.00
2022-09-21T13:36:06.363Z,18.10
2022-09-21T13:38:37.296Z,18.10
2022-09-21T13:41:45.362Z,18.00
2022-09-21T13:44:22.282Z,18.20
2022-09-21T13:46:57.559Z,18.20
2022-09-21T13:49:47.590Z,18.60
2022-09-21T13:52:27.264Z,18.40
2022-09-21T13:54:58.442Z,18.30
2022-09-21T13:57:33.204Z,17.90
2022-09-21T14:00:20.886Z,18.00
2022-09-21T14:02:58.169Z,17.40
2022-09-21T14:05:31.635Z,17.30
2022-09-21T14:08:02.193Z,17.10
2022-09-21T14:10:33.748Z,17.20
2022-09-21T14:13:05.748Z,17.10
2022-09-21T14:15:38.193Z,17.20
2022-09-21T14:18:22.230Z,17.20
2022-09-21T14:21:10.097Z,17.30
2022-09-21T14:23:38.768Z,17.40
2022-09-21T14:26:25.295Z,17.30
2022-09-21T14:28:56.235Z,17.10
2022-09-21T14:31:30.108Z,16.80
2022-09-21T14:34:01.268Z,16.80
2022-09-21T14:36:39.353Z,17.10
2022-09-21T14:39:14.306Z,17.30
2022-09-21T14:41:44.549Z,17.10
2022-09-21T14:44:21.080Z,17.10
2022-09-21T14:47:10.278Z,16.90
2022-09-21T14:49:55.152Z,17.00
2022-09-21T14:52:35.081Z,16.80
2022-09-21T14:55:17.188Z,17.10
2022-09-21T14:58:11.723Z,17.10
2022-09-21T15:00:43.190Z,16.90
2022-09-21T15:03:40.054Z,17.00
2022-09-21T15:06:37.393Z,17.00
2022-09-21T15:09:43.494Z,16.90
2022-09-21T15:12:16.989Z,17.00
2022-09-21T15:14:48.031Z,17.10
2022-09-21T15:17:29.790Z,16.90
2022-09-21T15:20:00.773Z,17.00
2022-09-21T15:22:29.931Z,16.90
2022-09-21T15:24:59.382Z,17.00
2022-09-21T15:27:33.164Z,17.20
2022-09-21T15:30:05.840Z,17.20
2022-09-21T15:32:39.055Z,16.90
2022-09-21T15:35:17.264Z,16.90
2022-09-21T15:37:46.640Z,17.10
2022-09-21T15:40:20.585Z,17.10
2022-09-21T15:43:04.513Z,16.90
2022-09-21T15:45:37.991Z,16.90
2022-09-21T15:48:13.990Z,16.90
2022-09-21T15:50:43.519Z,17.00
2022-09-21T15:53:17.507Z,17.10
2022-09-21T15:55:48.187Z,17.00
2022-09-21T15:58:26.665Z,17.00
2022-09-21T16:01:02.496Z,17.10
2022-09-21T16:03:32.215Z,16.90
2022-09-21T16:06:02.312Z,16.90
2022-09-21T16:08:39.669Z,16.90
2022-09-21T16:11:17.644Z,17.00
2022-09-21T16:14:03.948Z,16.90
2022-09-21T16:16:32.352Z,16.80
2022-09-21T16:19:01.613Z,16.80
2022-09-21T16:21:32.838Z,16.80
2022-09-21T16:24:12.659Z,16.80
2022-09-21T16:26:42.621Z,16.60
2022-09-21T16:29:23.522Z,16.50
2022-09-21T16:31:51.787Z,16.40
2022-09-21T16:34:26.118Z,16.30
2022-09-21T16:36:54.938Z,16.30
2022-09-21T16:39:23.327Z,16.40
2022-09-21T16:41:55.001Z,16.30
2022-09-21T16:44:25.590Z,16.30
2022-09-21T16:46:57.221Z,16.30
2022-09-21T16:49:30.629Z,16.00
2022-09-21T16:51:59.695Z,15.90
2022-09-21T16:54:28.091Z,15.80
2022-09-21T16:56:58.059Z,15.70
2022-09-21T16:59:26.305Z,15.60
2022-09-21T17:01:56.679Z,15.40
2022-09-21T17:04:28.581Z,15.40
2022-09-21T17:06:56.469Z,15.30
2022-09-21T17:09:29.831Z,15.30
2022-09-21T17:12:01.250Z,15.10
2022-09-21T17:14:39.953Z,15.00
2022-09-21T17:17:14.971Z,14.90
2022-09-21T17:22:29.619Z,14.70
2022-09-21T17:24:57.625Z,14.40
2022-09-21T17:27:29.018Z,14.40
2022-09-21T17:29:57.021Z,14.60
2022-09-21T17:32:25.987Z,14.60
2022-09-21T17:35:15.477Z,14.40
2022-09-21T17:37:43.461Z,14.10
2022-09-21T17:40:13.155Z,13.70
2022-09-21T17:42:44.167Z,13.60
2022-09-21T17:45:21.772Z,13.40
2022-09-21T17:47:51.390Z,13.30
2022-09-21T17:50:25.494Z,13.30
2022-09-21T17:53:11.485Z,13.10
2022-09-21T17:55:40.475Z,13.10
2022-09-21T17:58:25.091Z,13.10
2022-09-21T18:01:01.540Z,12.90
2022-09-21T18:03:32.397Z,13.10
2022-09-21T18:06:02.904Z,13.00
2022-09-21T18:08:33.945Z,13.10
2022-09-21T18:11:13.790Z,13.10
2022-09-21T18:13:52.264Z,13.10
2022-09-21T18:16:46.558Z,13.00
2022-09-21T18:19:31.088Z,12.90
2022-09-21T18:22:12.117Z,12.80
2022-09-21T18:24:40.896Z,12.80
2022-09-21T18:27:12.074Z,12.80
2022-09-21T18:29:41.607Z,12.80
2022-09-21T18:32:44.708Z,12.80
2022-09-21T18:35:34.895Z,12.70
2022-09-21T18:38:17.025Z,12.50
2022-09-21T18:40:54.651Z,12.50
2022-09-21T18:43:53.363Z,12.40
2022-09-21T18:46:31.606Z,12.40
2022-09-21T18:49:06.741Z,12.40
2022-09-21T18:51:41.892Z,12.30
2022-09-21T18:54:18.774Z,12.40
2022-09-21T18:56:47.622Z,12.30
2022-09-21T18:59:17.287Z,12.60
2022-09-21T19:01:48.148Z,12.50
2022-09-21T19:04:19.498Z,12.60
2022-09-21T19:06:52.396Z,12.60
2022-09-21T19:09:36.448Z,12.60
2022-09-21T19:12:14.217Z,12.60
2022-09-21T19:14:58.887Z,12.70
2022-09-21T19:17:45.539Z,12.50
2022-09-21T19:20:35.016Z,12.30
2022-09-21T19:23:26.336Z,12.00
2022-09-21T19:26:04.117Z,11.90
2022-09-21T19:28:51.426Z,11.80
2022-09-21T19:31:20.170Z,11.70
2022-09-21T19:33:50.720Z,11.60
2022-09-21T19:36:19.729Z,11.60
2022-09-21T19:38:48.004Z,11.60
2022-09-21T19:41:32.188Z,11.50
2022-09-21T19:44:09.066Z,11.40
2022-09-21T19:46:43.900Z,11.50
2022-09-21T19:49:18.322Z,11.50
2022-09-21T19:51:49.866Z,11.30
2022-09-21T19:54:38.388Z,11.20
2022-09-21T19:57:31.962Z,11.10
2022-09-21T20:00:00.980Z,11.20
2022-09-21T20:02:32.842Z,11.10
2022-09-21T20:05:07.139Z,11.00
2022-09-21T20:07:45.216Z,11.00
2022-09-21T20:10:28.910Z,11.00
2022-09-21T20:13:06.649Z,11.00
2022-09-21T20:15:40.645Z,10.90
2022-09-21T20:18:19.958Z,10.80
2022-09-21T20:20:48.418Z,10.70
2022-09-21T20:23:17.971Z,10.80
2022-09-21T20:25:54.148Z,10.60
2022-09-21T20:28:24.728Z,10.70
2022-09-21T20:30:54.539Z,10.70
2022-09-21T20:33:24.272Z,10.90
2022-09-21T20:35:55.362Z,10.70
2022-09-21T20:38:23.531Z,10.60
2022-09-21T20:40:52.613Z,10.50
2022-09-21T20:43:23.020Z,10.40
2022-09-21T20:45:53.639Z,10.50
2022-09-21T20:48:21.572Z,10.50
2022-09-21T20:50:51.048Z,10.50
2022-09-21T20:53:20.156Z,10.50
2022-09-21T20:55:55.038Z,10.50
2022-09-21T20:58:24.572Z,10.50
2022-09-21T21:00:58.853Z,10.50
2022-09-21T21:03:27.121Z,10.40
2022-09-21T21:05:55.086Z,10.30
2022-09-21T21:08:22.956Z,10.30
2022-09-21T21:10:50.805Z,10.30
2022-09-21T21:13:18.735Z,10.30
2022-09-21T21:15:46.625Z,10.30
2022-09-21T21:18:16.320Z,10.30
2022-09-21T21:20:44.285Z,10.30
2022-09-21T21:23:12.228Z,10.30
2022-09-21T21:25:40.059Z,10.20
2022-09-21T21:28:09.389Z,10.20
2022-09-21T21:30:38.314Z,10.20
2022-09-21T21:33:06.229Z,10.20
2022-09-21T21:35:36.239Z,10.20
2022-09-21T21:38:04.309Z,10.10
2022-09-21T21:40:32.343Z,10.10
2022-09-21T21:43:00.271Z,10.00
2022-09-21T21:45:28.310Z,9.90
2022-09-21T21:47:56.259Z,9.90
2022-09-21T21:50:25.195Z,9.90
2022-09-21T21:52:59.295Z,9.90
2022-09-21T21:55:28.027Z,9.90
2022-09-21T21:57:57.107Z,9.90
2022-09-21T22:00:24.973Z,9.80
2022-09-21T22:02:52.964Z,9.80
2022-09-21T22:05:20.816Z,9.70
2022-09-21T22:07:48.925Z,9.70
2022-09-21T22:10:18.365Z,9.70
2022-09-21T22:12:46.259Z,9.60
2022-09-21T22:15:14.125Z,9.60
2022-09-21T22:17:41.991Z,9.60
2022-09-21T22:20:17.715Z,9.50
2022-09-21T22:22:45.424Z,9.50
2022-09-21T22:25:13.266Z,9.50
2022-09-21T22:27:42.471Z,9.40
2022-09-21T22:30:11.101Z,9.40
2022-09-21T22:32:38.949Z,9.30
2022-09-21T22:35:07.564Z,9.40
2022-09-21T22:37:35.455Z,9.30
2022-09-21T22:40:03.970Z,9.30
2022-09-21T22:42:31.960Z,9.20
2022-09-21T22:45:01.185Z,9.20
2022-09-21T22:47:29.027Z,9.10
2022-09-21T22:49:57.644Z,9.10
2022-09-21T22:52:25.547Z,9.10
2022-09-21T22:54:53.498Z,9.10
2022-09-21T22:57:21.363Z,9.10
2022-09-21T22:59:49.150Z,9.10
2022-09-21T23:02:18.343Z,9.00
2022-09-21T23:04:46.877Z,9.00
2022-09-21T23:07:16.926Z,8.90
2022-09-21T23:09:44.972Z,9.00
2022-09-21T23:12:12.791Z,9.10
2022-09-21T23:14:40.697Z,9.00
2022-09-21T23:17:08.593Z,9.00
2022-09-21T23:19:37.763Z,8.90
2022-09-21T23:22:05.632Z,8.80
2022-09-21T23:24:34.116Z,8.90
2022-09-21T23:27:02.308Z,8.90
2022-09-21T23:29:30.599Z,8.90
2022-09-21T23:31:58.916Z,8.90
2022-09-21T23:34:26.882Z,8.80
2022-09-21T23:36:56.375Z,8.90
2022-09-21T23:39:24.743Z,8.80
2022-09-21T23:41:52.959Z,8.80
2022-09-21T23:44:23.042Z,8.80
2022-09-21T23:46:51.542Z,8.80
2022-09-21T23:49:20.129Z,8.80
2022-09-21T23:51:48.596Z,8.80
2022-09-21T23:54:19.665Z,8.90
2022-09-21T23:56:47.899Z,9.00
2022-09-21T23:59:16.061Z,8.90
